sensor_id;sensor_type;location;lat;lon;timestamp;P1;durP1;ratioP1;P2;durP2;ratioP2
21663;SDS011;10993;52.510;13.456;2024-01-07T00:02:13;5.10;;;2.57;;
21663;SDS011;10993;52.510;13.456;2024-01-07T00:07:13;9.63;;;3.23;;
21663;SDS011;10993;52.510;13.456;2024-01-07T00:12:14;4.33;;;1.73;;
21663;SDS011;10993;52.510;13.456;2024-01-07T00:17:16;8.97;;;2.20;;
21663;SDS011;10993;52.510;13.456;2024-01-07T00:22:16;4.43;;;1.83;;
21663;SDS011;10993;52.510;13.456;2024-01-07T00:27:17;7.30;;;2.97;;
21663;SDS011;10993;52.510;13.456;2024-01-07T00:32:19;4.90;;;2.30;;
21663;SDS011;10993;52.510;13.456;2024-01-07T00:37:19;7.90;;;2.23;;
21663;SDS011;10993;52.510;13.456;2024-01-07T00:42:19;7.43;;;2.77;;
21663;SDS011;10993;52.510;13.456;2024-01-07T00:47:22;5.70;;;2.10;;
21663;SDS011;10993;52.510;13.456;2024-01-07T00:52:22;5.50;;;2.07;;
21663;SDS011;10993;52.510;13.456;2024-01-07T00:57:23;8.97;;;3.60;;
21663;SDS011;10993;52.510;13.456;2024-01-07T01:02:24;7.00;;;2.03;;
21663;SDS011;10993;52.510;13.456;2024-01-07T01:07:25;6.10;;;1.87;;
21663;SDS011;10993;52.510;13.456;2024-01-07T01:12:25;3.17;;;1.60;;
21663;SDS011;10993;52.510;13.456;2024-01-07T01:17:27;2.33;;;1.00;;
21663;SDS011;10993;52.510;13.456;2024-01-07T01:22:27;5.70;;;1.60;;
21663;SDS011;10993;52.510;13.456;2024-01-07T01:27:27;4.57;;;2.08;;
21663;SDS011;10993;52.510;13.456;2024-01-07T01:32:29;2.53;;;1.20;;
21663;SDS011;10993;52.510;13.456;2024-01-07T01:37:29;3.40;;;1.50;;
21663;SDS011;10993;52.510;13.456;2024-01-07T01:42:32;3.50;;;1.00;;
21663;SDS011;10993;52.510;13.456;2024-01-07T01:47:34;2.97;;;1.13;;
21663;SDS011;10993;52.510;13.456;2024-01-07T01:52:34;3.70;;;1.50;;
21663;SDS011;10993;52.510;13.456;2024-01-07T01:57:35;5.60;;;2.43;;
21663;SDS011;10993;52.510;13.456;2024-01-07T02:02:39;4.47;;;1.50;;
21663;SDS011;10993;52.510;13.456;2024-01-07T02:07:39;2.27;;;1.23;;
21663;SDS011;10993;52.510;13.456;2024-01-07T02:12:40;5.03;;;1.60;;
21663;SDS011;10993;52.510;13.456;2024-01-07T02:17:42;5.53;;;1.43;;
21663;SDS011;10993;52.510;13.456;2024-01-07T02:22:42;3.47;;;1.37;;
21663;SDS011;10993;52.510;13.456;2024-01-07T02:27:43;10.43;;;1.48;;
21663;SDS011;10993;52.510;13.456;2024-01-07T02:32:44;3.53;;;1.23;;
21663;SDS011;10993;52.510;13.456;2024-01-07T02:37:44;2.63;;;1.23;;
21663;SDS011;10993;52.510;13.456;2024-01-07T02:42:46;3.53;;;1.40;;
21663;SDS011;10993;52.510;13.456;2024-01-07T02:47:46;4.00;;;1.77;;
21663;SDS011;10993;52.510;13.456;2024-01-07T02:52:46;3.90;;;1.53;;
21663;SDS011;10993;52.510;13.456;2024-01-07T02:57:48;3.77;;;1.33;;
21663;SDS011;10993;52.510;13.456;2024-01-07T03:02:48;1.83;;;0.97;;
21663;SDS011;10993;52.510;13.456;2024-01-07T03:07:48;5.37;;;1.27;;
21663;SDS011;10993;52.510;13.456;2024-01-07T03:12:50;6.03;;;2.30;;
21663;SDS011;10993;52.510;13.456;2024-01-07T03:17:50;3.90;;;1.80;;
21663;SDS011;10993;52.510;13.456;2024-01-07T03:22:51;3.17;;;1.52;;
21663;SDS011;10993;52.510;13.456;2024-01-07T03:27:52;2.60;;;1.23;;
21663;SDS011;10993;52.510;13.456;2024-01-07T03:32:53;3.17;;;1.43;;
21663;SDS011;10993;52.510;13.456;2024-01-07T03:37:54;4.57;;;1.70;;
21663;SDS011;10993;52.510;13.456;2024-01-07T03:42:55;6.43;;;2.00;;
21663;SDS011;10993;52.510;13.456;2024-01-07T03:47:56;3.53;;;1.37;;
21663;SDS011;10993;52.510;13.456;2024-01-07T03:52:56;4.10;;;1.23;;
21663;SDS011;10993;52.510;13.456;2024-01-07T03:57:58;3.25;;;1.40;;
21663;SDS011;10993;52.510;13.456;2024-01-07T04:02:58;2.53;;;1.60;;
21663;SDS011;10993;52.510;13.456;2024-01-07T04:07:59;3.30;;;1.37;;
21663;SDS011;10993;52.510;13.456;2024-01-07T04:13:01;4.20;;;1.50;;
21663;SDS011;10993;52.510;13.456;2024-01-07T04:18:01;5.50;;;1.90;;
21663;SDS011;10993;52.510;13.456;2024-01-07T04:23:03;2.00;;;1.10;;
21663;SDS011;10993;52.510;13.456;2024-01-07T04:28:05;4.33;;;2.00;;
21663;SDS011;10993;52.510;13.456;2024-01-07T04:33:05;4.10;;;1.53;;
21663;SDS011;10993;52.510;13.456;2024-01-07T04:38:06;2.37;;;1.27;;
21663;SDS011;10993;52.510;13.456;2024-01-07T04:43:07;2.77;;;1.50;;
21663;SDS011;10993;52.510;13.456;2024-01-07T04:48:08;4.33;;;1.83;;
21663;SDS011;10993;52.510;13.456;2024-01-07T04:53:08;3.85;;;1.52;;
21663;SDS011;10993;52.510;13.456;2024-01-07T04:58:10;5.63;;;1.67;;
21663;SDS011;10993;52.510;13.456;2024-01-07T05:03:10;2.13;;;1.23;;
21663;SDS011;10993;52.510;13.456;2024-01-07T05:08:11;3.53;;;1.40;;
21663;SDS011;10993;52.510;13.456;2024-01-07T05:13:12;3.33;;;1.40;;
21663;SDS011;10993;52.510;13.456;2024-01-07T05:18:13;4.30;;;1.40;;
21663;SDS011;10993;52.510;13.456;2024-01-07T05:23:13;3.27;;;1.37;;
21663;SDS011;10993;52.510;13.456;2024-01-07T05:28:15;3.50;;;1.63;;
21663;SDS011;10993;52.510;13.456;2024-01-07T05:33:19;1.77;;;0.80;;
21663;SDS011;10993;52.510;13.456;2024-01-07T05:38:19;3.45;;;1.40;;
21663;SDS011;10993;52.510;13.456;2024-01-07T05:43:21;3.00;;;1.53;;
21663;SDS011;10993;52.510;13.456;2024-01-07T05:48:21;3.50;;;1.70;;
21663;SDS011;10993;52.510;13.456;2024-01-07T05:53:22;3.87;;;1.77;;
21663;SDS011;10993;52.510;13.456;2024-01-07T05:58:24;3.73;;;1.93;;
21663;SDS011;10993;52.510;13.456;2024-01-07T06:03:24;3.83;;;1.60;;
21663;SDS011;10993;52.510;13.456;2024-01-07T06:08:24;4.93;;;2.23;;
21663;SDS011;10993;52.510;13.456;2024-01-07T06:13:26;6.22;;;2.40;;
21663;SDS011;10993;52.510;13.456;2024-01-07T06:18:26;4.33;;;1.77;;
21663;SDS011;10993;52.510;13.456;2024-01-07T06:23:26;4.50;;;1.90;;
21663;SDS011;10993;52.510;13.456;2024-01-07T06:28:28;3.40;;;1.73;;
21663;SDS011;10993;52.510;13.456;2024-01-07T06:33:28;3.47;;;1.90;;
21663;SDS011;10993;52.510;13.456;2024-01-07T06:38:29;2.97;;;1.83;;
21663;SDS011;10993;52.510;13.456;2024-01-07T06:43:30;5.87;;;2.07;;
21663;SDS011;10993;52.510;13.456;2024-01-07T06:48:32;4.30;;;1.90;;
21663;SDS011;10993;52.510;13.456;2024-01-07T06:53:32;5.13;;;2.23;;
21663;SDS011;10993;52.510;13.456;2024-01-07T06:58:34;3.63;;;1.90;;
21663;SDS011;10993;52.510;13.456;2024-01-07T07:03:34;3.23;;;1.77;;
21663;SDS011;10993;52.510;13.456;2024-01-07T07:08:34;5.07;;;2.00;;
21663;SDS011;10993;52.510;13.456;2024-01-07T07:13:36;4.53;;;1.90;;
21663;SDS011;10993;52.510;13.456;2024-01-07T07:18:38;4.50;;;1.83;;
21663;SDS011;10993;52.510;13.456;2024-01-07T07:23:38;4.23;;;1.80;;
21663;SDS011;10993;52.510;13.456;2024-01-07T07:28:39;6.27;;;1.80;;
21663;SDS011;10993;52.510;13.456;2024-01-07T07:33:40;4.80;;;2.03;;
21663;SDS011;10993;52.510;13.456;2024-01-07T07:38:40;4.28;;;1.70;;
21663;SDS011;10993;52.510;13.456;2024-01-07T07:43:42;4.80;;;1.83;;
21663;SDS011;10993;52.510;13.456;2024-01-07T07:48:42;4.23;;;2.20;;
21663;SDS011;10993;52.510;13.456;2024-01-07T07:53:42;4.30;;;1.70;;
21663;SDS011;10993;52.510;13.456;2024-01-07T07:58:44;4.03;;;1.73;;
21663;SDS011;10993;52.510;13.456;2024-01-07T08:03:44;4.90;;;2.00;;
21663;SDS011;10993;52.510;13.456;2024-01-07T08:08:45;4.77;;;1.80;;
21663;SDS011;10993;52.510;13.456;2024-01-07T08:13:46;3.03;;;1.58;;
21663;SDS011;10993;52.510;13.456;2024-01-07T08:18:47;3.43;;;2.00;;
21663;SDS011;10993;52.510;13.456;2024-01-07T08:23:47;4.70;;;1.63;;
21663;SDS011;10993;52.510;13.456;2024-01-07T08:28:49;3.37;;;1.50;;
21663;SDS011;10993;52.510;13.456;2024-01-07T08:33:49;5.63;;;2.60;;
21663;SDS011;10993;52.510;13.456;2024-01-07T08:38:50;5.27;;;2.07;;
21663;SDS011;10993;52.510;13.456;2024-01-07T08:43:51;6.93;;;2.07;;
21663;SDS011;10993;52.510;13.456;2024-01-07T08:48:52;4.30;;;1.90;;
21663;SDS011;10993;52.510;13.456;2024-01-07T08:53:52;5.40;;;1.87;;
21663;SDS011;10993;52.510;13.456;2024-01-07T08:58:54;4.97;;;2.40;;
21663;SDS011;10993;52.510;13.456;2024-01-07T09:03:54;5.87;;;2.43;;
21663;SDS011;10993;52.510;13.456;2024-01-07T09:08:54;6.83;;;1.93;;
21663;SDS011;10993;52.510;13.456;2024-01-07T09:13:56;4.97;;;1.60;;
21663;SDS011;10993;52.510;13.456;2024-01-07T09:18:56;6.40;;;2.27;;
21663;SDS011;10993;52.510;13.456;2024-01-07T09:23:56;6.97;;;2.50;;
21663;SDS011;10993;52.510;13.456;2024-01-07T09:28:58;12.33;;;2.50;;
21663;SDS011;10993;52.510;13.456;2024-01-07T09:33:58;5.23;;;2.37;;
21663;SDS011;10993;52.510;13.456;2024-01-07T09:38:59;8.10;;;3.80;;
21663;SDS011;10993;52.510;13.456;2024-01-07T09:44:00;7.63;;;3.40;;
21663;SDS011;10993;52.510;13.456;2024-01-07T09:49:02;7.90;;;3.13;;
21663;SDS011;10993;52.510;13.456;2024-01-07T09:54:02;5.43;;;2.60;;
21663;SDS011;10993;52.510;13.456;2024-01-07T09:59:05;9.73;;;3.63;;
21663;SDS011;10993;52.510;13.456;2024-01-07T10:04:06;5.47;;;2.60;;
21663;SDS011;10993;52.510;13.456;2024-01-07T10:09:06;8.15;;;3.30;;
21663;SDS011;10993;52.510;13.456;2024-01-07T10:14:08;8.63;;;3.23;;
21663;SDS011;10993;52.510;13.456;2024-01-07T10:19:08;8.87;;;3.57;;
21663;SDS011;10993;52.510;13.456;2024-01-07T10:24:09;7.73;;;3.60;;
21663;SDS011;10993;52.510;13.456;2024-01-07T10:29:11;7.70;;;3.67;;
21663;SDS011;10993;52.510;13.456;2024-01-07T10:34:11;8.83;;;4.47;;
21663;SDS011;10993;52.510;13.456;2024-01-07T10:39:13;7.97;;;4.13;;
21663;SDS011;10993;52.510;13.456;2024-01-07T10:44:17;9.93;;;3.87;;
21663;SDS011;10993;52.510;13.456;2024-01-07T10:49:19;9.00;;;3.90;;
21663;SDS011;10993;52.510;13.456;2024-01-07T10:54:24;9.43;;;4.90;;
21663;SDS011;10993;52.510;13.456;2024-01-07T10:59:29;13.47;;;5.83;;
21663;SDS011;10993;52.510;13.456;2024-01-07T11:04:34;7.80;;;4.03;;
21663;SDS011;10993;52.510;13.456;2024-01-07T11:09:43;10.53;;;4.50;;
21663;SDS011;10993;52.510;13.456;2024-01-07T11:14:55;9.80;;;4.73;;
21663;SDS011;10993;52.510;13.456;2024-01-07T11:19:57;11.70;;;4.80;;
21663;SDS011;10993;52.510;13.456;2024-01-07T11:25:00;8.97;;;4.43;;
21663;SDS011;10993;52.510;13.456;2024-01-07T11:30:02;10.53;;;4.30;;
21663;SDS011;10993;52.510;13.456;2024-01-07T11:35:06;7.13;;;4.10;;
21663;SDS011;10993;52.510;13.456;2024-01-07T11:40:07;9.30;;;4.67;;
21663;SDS011;10993;52.510;13.456;2024-01-07T11:45:09;11.00;;;4.20;;
21663;SDS011;10993;52.510;13.456;2024-01-07T11:50:10;9.50;;;3.90;;
21663;SDS011;10993;52.510;13.456;2024-01-07T11:55:11;9.00;;;4.00;;
21663;SDS011;10993;52.510;13.456;2024-01-07T12:00:13;10.13;;;4.20;;
21663;SDS011;10993;52.510;13.456;2024-01-07T12:05:14;12.13;;;4.30;;
21663;SDS011;10993;52.510;13.456;2024-01-07T12:10:15;9.00;;;3.83;;
21663;SDS011;10993;52.510;13.456;2024-01-07T12:15:19;12.23;;;3.37;;
21663;SDS011;10993;52.510;13.456;2024-01-07T12:20:20;8.40;;;4.13;;
21663;SDS011;10993;52.510;13.456;2024-01-07T12:25:21;7.53;;;3.60;;
21663;SDS011;10993;52.510;13.456;2024-01-07T12:30:25;6.97;;;3.47;;
21663;SDS011;10993;52.510;13.456;2024-01-07T12:35:25;6.50;;;3.00;;
21663;SDS011;10993;52.510;13.456;2024-01-07T12:40:27;9.23;;;4.10;;
21663;SDS011;10993;52.510;13.456;2024-01-07T12:45:28;8.47;;;3.80;;
21663;SDS011;10993;52.510;13.456;2024-01-07T12:50:29;9.73;;;4.13;;
21663;SDS011;10993;52.510;13.456;2024-01-07T12:55:31;7.53;;;3.33;;
21663;SDS011;10993;52.510;13.456;2024-01-07T13:00:33;8.00;;;3.80;;
21663;SDS011;10993;52.510;13.456;2024-01-07T13:05:35;5.87;;;3.50;;
21663;SDS011;10993;52.510;13.456;2024-01-07T13:10:36;6.40;;;3.30;;
21663;SDS011;10993;52.510;13.456;2024-01-07T13:15:37;6.97;;;3.57;;
21663;SDS011;10993;52.510;13.456;2024-01-07T13:20:38;6.80;;;3.50;;
21663;SDS011;10993;52.510;13.456;2024-01-07T13:25:39;11.23;;;5.80;;
21663;SDS011;10993;52.510;13.456;2024-01-07T13:30:41;8.57;;;3.83;;
21663;SDS011;10993;52.510;13.456;2024-01-07T13:35:42;7.20;;;3.77;;
21663;SDS011;10993;52.510;13.456;2024-01-07T13:40:42;8.97;;;4.50;;
21663;SDS011;10993;52.510;13.456;2024-01-07T13:45:44;9.40;;;4.23;;
21663;SDS011;10993;52.510;13.456;2024-01-07T13:50:44;7.30;;;3.57;;
21663;SDS011;10993;52.510;13.456;2024-01-07T13:55:45;7.30;;;3.30;;
21663;SDS011;10993;52.510;13.456;2024-01-07T14:00:47;8.23;;;3.47;;
21663;SDS011;10993;52.510;13.456;2024-01-07T14:05:48;7.40;;;3.60;;
21663;SDS011;10993;52.510;13.456;2024-01-07T14:10:48;8.47;;;3.90;;
21663;SDS011;10993;52.510;13.456;2024-01-07T14:15:50;10.73;;;3.67;;
21663;SDS011;10993;52.510;13.456;2024-01-07T14:20:50;6.83;;;3.80;;
21663;SDS011;10993;52.510;13.456;2024-01-07T14:25:51;6.23;;;3.00;;
21663;SDS011;10993;52.510;13.456;2024-01-07T14:30:52;8.17;;;2.67;;
21663;SDS011;10993;52.510;13.456;2024-01-07T14:35:52;6.83;;;2.50;;
21663;SDS011;10993;52.510;13.456;2024-01-07T14:40:53;3.37;;;2.00;;
21663;SDS011;10993;52.510;13.456;2024-01-07T14:45:54;6.00;;;3.40;;
21663;SDS011;10993;52.510;13.456;2024-01-07T14:50:55;4.40;;;2.60;;
21663;SDS011;10993;52.510;13.456;2024-01-07T14:55:55;5.23;;;2.53;;
21663;SDS011;10993;52.510;13.456;2024-01-07T15:00:59;4.83;;;2.20;;
21663;SDS011;10993;52.510;13.456;2024-01-07T15:05:59;5.10;;;2.40;;
21663;SDS011;10993;52.510;13.456;2024-01-07T15:10:59;4.73;;;2.40;;
21663;SDS011;10993;52.510;13.456;2024-01-07T15:16:01;9.60;;;4.73;;
21663;SDS011;10993;52.510;13.456;2024-01-07T15:21:02;7.17;;;3.10;;
21663;SDS011;10993;52.510;13.456;2024-01-07T15:26:03;7.07;;;3.20;;
21663;SDS011;10993;52.510;13.456;2024-01-07T15:31:04;6.10;;;2.90;;
21663;SDS011;10993;52.510;13.456;2024-01-07T15:36:05;7.33;;;3.30;;
21663;SDS011;10993;52.510;13.456;2024-01-07T15:41:07;7.43;;;3.50;;
21663;SDS011;10993;52.510;13.456;2024-01-07T15:46:09;5.67;;;3.10;;
21663;SDS011;10993;52.510;13.456;2024-01-07T15:51:09;14.57;;;4.03;;
21663;SDS011;10993;52.510;13.456;2024-01-07T15:56:09;6.53;;;3.27;;
21663;SDS011;10993;52.510;13.456;2024-01-07T16:01:11;6.83;;;3.43;;
21663;SDS011;10993;52.510;13.456;2024-01-07T16:06:12;10.43;;;3.63;;
21663;SDS011;10993;52.510;13.456;2024-01-07T16:11:12;8.27;;;4.10;;
21663;SDS011;10993;52.510;13.456;2024-01-07T16:16:17;6.17;;;3.23;;
21663;SDS011;10993;52.510;13.456;2024-01-07T16:21:18;8.37;;;3.07;;
21663;SDS011;10993;52.510;13.456;2024-01-07T16:26:20;7.17;;;3.50;;
21663;SDS011;10993;52.510;13.456;2024-01-07T16:31:22;9.20;;;4.03;;
21663;SDS011;10993;52.510;13.456;2024-01-07T16:36:22;6.40;;;2.90;;
21663;SDS011;10993;52.510;13.456;2024-01-07T16:41:22;6.57;;;3.07;;
21663;SDS011;10993;52.510;13.456;2024-01-07T16:46:24;11.53;;;5.23;;
21663;SDS011;10993;52.510;13.456;2024-01-07T16:51:25;8.53;;;3.83;;
21663;SDS011;10993;52.510;13.456;2024-01-07T16:56:25;8.63;;;4.00;;
21663;SDS011;10993;52.510;13.456;2024-01-07T17:01:26;10.70;;;5.30;;
21663;SDS011;10993;52.510;13.456;2024-01-07T17:06:27;8.67;;;4.03;;
21663;SDS011;10993;52.510;13.456;2024-01-07T17:11:27;5.60;;;2.97;;
21663;SDS011;10993;52.510;13.456;2024-01-07T17:16:29;7.77;;;4.20;;
21663;SDS011;10993;52.510;13.456;2024-01-07T17:21:29;7.27;;;3.20;;
21663;SDS011;10993;52.510;13.456;2024-01-07T17:26:30;7.97;;;3.70;;
21663;SDS011;10993;52.510;13.456;2024-01-07T17:31:31;8.50;;;4.07;;
21663;SDS011;10993;52.510;13.456;2024-01-07T17:36:32;12.90;;;5.20;;
21663;SDS011;10993;52.510;13.456;2024-01-07T17:41:34;12.20;;;4.47;;
21663;SDS011;10993;52.510;13.456;2024-01-07T17:46:35;7.80;;;3.40;;
21663;SDS011;10993;52.510;13.456;2024-01-07T17:51:36;8.83;;;4.20;;
21663;SDS011;10993;52.510;13.456;2024-01-07T17:56:38;7.67;;;4.27;;
21663;SDS011;10993;52.510;13.456;2024-01-07T18:01:40;9.03;;;4.70;;
21663;SDS011;10993;52.510;13.456;2024-01-07T18:06:44;10.77;;;4.63;;
21663;SDS011;10993;52.510;13.456;2024-01-07T18:11:45;8.00;;;4.20;;
21663;SDS011;10993;52.510;13.456;2024-01-07T18:16:47;12.47;;;4.50;;
21663;SDS011;10993;52.510;13.456;2024-01-07T18:21:48;7.23;;;3.80;;
21663;SDS011;10993;52.510;13.456;2024-01-07T18:26:48;9.30;;;4.47;;
21663;SDS011;10993;52.510;13.456;2024-01-07T18:31:57;7.27;;;3.93;;
21663;SDS011;10993;52.510;13.456;2024-01-07T18:36:57;9.93;;;4.33;;
21663;SDS011;10993;52.510;13.456;2024-01-07T18:41:57;9.87;;;4.30;;
21663;SDS011;10993;52.510;13.456;2024-01-07T18:46:59;8.70;;;4.30;;
21663;SDS011;10993;52.510;13.456;2024-01-07T18:51:59;9.60;;;4.73;;
21663;SDS011;10993;52.510;13.456;2024-01-07T18:57:00;10.03;;;3.63;;
21663;SDS011;10993;52.510;13.456;2024-01-07T19:02:02;5.30;;;2.60;;
21663;SDS011;10993;52.510;13.456;2024-01-07T19:07:03;6.20;;;3.33;;
21663;SDS011;10993;52.510;13.456;2024-01-07T19:12:03;6.37;;;3.30;;
21663;SDS011;10993;52.510;13.456;2024-01-07T19:17:05;9.90;;;4.00;;
21663;SDS011;10993;52.510;13.456;2024-01-07T19:22:06;9.20;;;4.20;;
21663;SDS011;10993;52.510;13.456;2024-01-07T19:27:08;9.93;;;3.77;;
21663;SDS011;10993;52.510;13.456;2024-01-07T19:32:09;7.03;;;3.43;;
21663;SDS011;10993;52.510;13.456;2024-01-07T19:37:11;11.23;;;3.13;;
21663;SDS011;10993;52.510;13.456;2024-01-07T19:42:13;6.50;;;2.80;;
21663;SDS011;10993;52.510;13.456;2024-01-07T19:47:16;12.23;;;4.17;;
21663;SDS011;10993;52.510;13.456;2024-01-07T19:52:17;8.23;;;3.40;;
21663;SDS011;10993;52.510;13.456;2024-01-07T19:57:17;7.30;;;2.60;;
21663;SDS011;10993;52.510;13.456;2024-01-07T20:02:19;7.40;;;2.77;;
21663;SDS011;10993;52.510;13.456;2024-01-07T20:07:19;8.80;;;2.87;;
21663;SDS011;10993;52.510;13.456;2024-01-07T20:12:20;6.57;;;3.17;;
21663;SDS011;10993;52.510;13.456;2024-01-07T20:17:21;7.73;;;3.20;;
21663;SDS011;10993;52.510;13.456;2024-01-07T20:22:22;7.97;;;2.70;;
21663;SDS011;10993;52.510;13.456;2024-01-07T20:27:22;10.33;;;4.03;;
21663;SDS011;10993;52.510;13.456;2024-01-07T20:32:24;9.63;;;3.53;;
21663;SDS011;10993;52.510;13.456;2024-01-07T20:37:24;8.90;;;3.50;;
21663;SDS011;10993;52.510;13.456;2024-01-07T20:42:24;8.70;;;3.60;;
21663;SDS011;10993;52.510;13.456;2024-01-07T20:47:26;11.80;;;4.27;;
21663;SDS011;10993;52.510;13.456;2024-01-07T20:52:27;9.57;;;4.30;;
21663;SDS011;10993;52.510;13.456;2024-01-07T20:57:28;11.80;;;4.80;;
21663;SDS011;10993;52.510;13.456;2024-01-07T21:02:30;12.27;;;4.47;;
21663;SDS011;10993;52.510;13.456;2024-01-07T21:07:31;10.73;;;4.17;;
21663;SDS011;10993;52.510;13.456;2024-01-07T21:12:32;15.00;;;4.53;;
21663;SDS011;10993;52.510;13.456;2024-01-07T21:17:33;9.88;;;4.10;;
21663;SDS011;10993;52.510;13.456;2024-01-07T21:22:38;11.80;;;4.20;;
21663;SDS011;10993;52.510;13.456;2024-01-07T21:27:38;9.70;;;4.60;;
21663;SDS011;10993;52.510;13.456;2024-01-07T21:32:40;9.87;;;4.60;;
21663;SDS011;10993;52.510;13.456;2024-01-07T21:37:41;8.73;;;3.93;;
21663;SDS011;10993;52.510;13.456;2024-01-07T21:42:42;12.60;;;5.37;;
21663;SDS011;10993;52.510;13.456;2024-01-07T21:47:43;8.37;;;4.00;;
21663;SDS011;10993;52.510;13.456;2024-01-07T21:52:50;12.83;;;5.50;;
21663;SDS011;10993;52.510;13.456;2024-01-07T21:57:51;11.97;;;5.37;;
21663;SDS011;10993;52.510;13.456;2024-01-07T22:02:53;13.27;;;4.70;;
21663;SDS011;10993;52.510;13.456;2024-01-07T22:07:54;8.20;;;3.77;;
21663;SDS011;10993;52.510;13.456;2024-01-07T22:12:54;10.87;;;5.23;;
21663;SDS011;10993;52.510;13.456;2024-01-07T22:17:56;9.53;;;4.97;;
21663;SDS011;10993;52.510;13.456;2024-01-07T22:22:56;5.00;;;2.43;;
21663;SDS011;10993;52.510;13.456;2024-01-07T22:27:57;6.47;;;3.27;;
21663;SDS011;10993;52.510;13.456;2024-01-07T22:32:58;12.23;;;3.80;;
21663;SDS011;10993;52.510;13.456;2024-01-07T22:38:00;9.27;;;4.70;;
21663;SDS011;10993;52.510;13.456;2024-01-07T22:43:01;7.87;;;4.00;;
21663;SDS011;10993;52.510;13.456;2024-01-07T22:48:04;10.43;;;4.60;;
21663;SDS011;10993;52.510;13.456;2024-01-07T22:53:05;10.77;;;4.00;;
21663;SDS011;10993;52.510;13.456;2024-01-07T22:58:07;12.60;;;5.20;;
21663;SDS011;10993;52.510;13.456;2024-01-07T23:03:08;12.57;;;4.87;;
21663;SDS011;10993;52.510;13.456;2024-01-07T23:08:10;7.43;;;3.77;;
21663;SDS011;10993;52.510;13.456;2024-01-07T23:13:11;12.17;;;4.70;;
21663;SDS011;10993;52.510;13.456;2024-01-07T23:18:12;8.30;;;4.03;;
21663;SDS011;10993;52.510;13.456;2024-01-07T23:23:13;6.77;;;3.83;;
21663;SDS011;10993;52.510;13.456;2024-01-07T23:28:13;8.73;;;3.40;;
21663;SDS011;10993;52.510;13.456;2024-01-07T23:33:15;10.25;;;2.92;;
21663;SDS011;10993;52.510;13.456;2024-01-07T23:38:15;8.30;;;3.30;;
21663;SDS011;10993;52.510;13.456;2024-01-07T23:43:16;4.00;;;1.95;;
21663;SDS011;10993;52.510;13.456;2024-01-07T23:48:18;9.50;;;4.00;;
21663;SDS011;10993;52.510;13.456;2024-01-07T23:53:19;7.37;;;3.63;;
21663;SDS011;10993;52.510;13.456;2024-01-07T23:58:19;11.38;;;4.10;;
